createdAt,value
2023-02-05T00:00:19.090Z,31.63
2023-02-05T00:02:45.648Z,34.83
2023-02-05T00:05:12.335Z,32.75
2023-02-05T00:07:38.697Z,36.65
2023-02-05T00:10:05.748Z,38.35
2023-02-05T00:12:32.352Z,29.58
2023-02-05T00:14:58.810Z,36.90
2023-02-05T00:17:25.204Z,36.67
2023-02-05T00:19:51.598Z,34.50
2023-02-05T00:22:17.978Z,33.38
2023-02-05T00:24:44.406Z,32.03
2023-02-05T00:27:10.938Z,39.22
2023-02-05T00:29:37.986Z,36.80
2023-02-05T00:32:04.588Z,35.38
2023-02-05T00:34:30.977Z,38.75
2023-02-05T00:36:57.565Z,35.38
2023-02-05T00:39:23.955Z,34.60
2023-02-05T00:41:50.861Z,38.40
2023-02-05T00:44:17.225Z,36.78
2023-02-05T00:46:43.614Z,36.05
2023-02-05T00:49:10.003Z,38.67
2023-02-05T00:51:36.486Z,36.78
2023-02-05T00:54:02.899Z,38.55
2023-02-05T00:56:29.706Z,28.42
2023-02-05T00:58:57.456Z,38.72
2023-02-05T01:01:23.912Z,36.72
2023-02-05T01:03:50.356Z,38.28
2023-02-05T01:06:16.940Z,32.72
2023-02-05T01:08:43.384Z,32.83
2023-02-05T01:11:11.147Z,33.42
2023-02-05T01:13:38.455Z,32.60
2023-02-05T01:16:05.463Z,33.45
2023-02-05T01:18:32.078Z,36.92
2023-02-05T01:20:59.192Z,38.88
2023-02-05T01:23:25.847Z,38.28
2023-02-05T01:25:52.367Z,37.78
2023-02-05T01:28:18.941Z,33.42
2023-02-05T01:30:50.209Z,36.08
2023-02-05T01:33:17.562Z,33.50
2023-02-05T01:35:44.855Z,30.92
2023-02-05T01:38:12.561Z,39.45
2023-02-05T01:40:39.651Z,39.08
2023-02-05T01:43:14.092Z,31.80
2023-02-05T01:46:05.677Z,41.83
2023-02-05T01:48:43.802Z,32.42
2023-02-05T01:51:14.301Z,29.58
2023-02-05T01:53:42.637Z,37.33
2023-02-05T01:56:14.756Z,32.17
2023-02-05T01:58:48.053Z,32.03
2023-02-05T02:01:15.166Z,35.72
2023-02-05T02:03:41.688Z,34.78
2023-02-05T02:06:09.378Z,28.30
2023-02-05T02:08:35.829Z,29.20
2023-02-05T02:11:05.470Z,34.10
2023-02-05T02:13:35.367Z,32.20
2023-02-05T02:16:06.462Z,32.85
2023-02-05T02:18:34.775Z,36.40
2023-02-05T02:21:29.499Z,33.63
2023-02-05T02:24:33.625Z,41.47
2023-02-05T02:27:10.200Z,34.13
2023-02-05T02:29:53.877Z,34.65
2023-02-05T02:35:23.402Z,35.75
2023-02-05T02:37:54.855Z,36.33
2023-02-05T02:40:44.583Z,33.45
2023-02-05T02:43:29.376Z,33.77
2023-02-05T02:46:05.316Z,35.10
2023-02-05T02:48:35.026Z,34.17
2023-02-05T02:51:03.466Z,38.40
2023-02-05T02:53:36.460Z,30.80
2023-02-05T02:56:04.520Z,41.53
2023-02-05T02:58:38.798Z,32.90
2023-02-05T03:01:08.876Z,35.13
2023-02-05T03:03:38.363Z,33.38
2023-02-05T03:06:09.753Z,31.42
2023-02-05T03:08:47.155Z,34.42
2023-02-05T03:11:15.600Z,28.80
2023-02-05T03:13:44.716Z,36.58
2023-02-05T03:16:12.815Z,37.15
2023-02-05T03:18:40.048Z,44.28
2023-02-05T03:21:16.614Z,38.85
2023-02-05T03:23:43.865Z,36.85
2023-02-05T03:26:29.213Z,40.33
2023-02-05T03:29:11.560Z,34.55
2023-02-05T03:31:48.270Z,30.65
2023-02-05T03:34:37.619Z,36.65
2023-02-05T03:37:16.522Z,33.72
2023-02-05T03:39:48.180Z,43.08
2023-02-05T03:43:05.182Z,43.65
2023-02-05T03:46:03.260Z,40.25
2023-02-05T03:48:45.574Z,44.05
2023-02-05T03:51:55.375Z,44.30
2023-02-05T03:54:38.648Z,52.33
2023-02-05T03:57:23.961Z,51.22
2023-02-05T03:59:52.229Z,61.17
2023-02-05T04:02:20.917Z,62.72
2023-02-05T04:04:47.684Z,60.28
2023-02-05T04:07:14.895Z,60.75
2023-02-05T04:09:41.809Z,55.15
2023-02-05T04:12:09.709Z,61.08
2023-02-05T04:14:37.921Z,61.08
2023-02-05T04:17:04.873Z,67.55
2023-02-05T04:19:31.252Z,69.28
2023-02-05T04:21:59.910Z,69.65
2023-02-05T04:24:27.342Z,71.15
2023-02-05T04:26:53.897Z,67.85
2023-02-05T04:29:20.505Z,65.18
2023-02-05T04:31:50.226Z,59.33
2023-02-05T04:34:16.785Z,66.90
2023-02-05T04:36:43.873Z,62.80
2023-02-05T04:39:10.742Z,70.60
2023-02-05T04:41:37.336Z,71.35
2023-02-05T04:44:03.987Z,58.47
2023-02-05T04:46:30.654Z,66.07
2023-02-05T04:48:57.043Z,68.55
2023-02-05T04:51:23.756Z,63.50
2023-02-05T04:53:50.231Z,56.65
2023-02-05T04:56:17.860Z,61.17
2023-02-05T04:58:45.159Z,60.28
2023-02-05T05:01:18.096Z,65.68
2023-02-05T05:03:45.028Z,68.93
2023-02-05T05:06:12.381Z,57.70
2023-02-05T05:08:39.060Z,65.43
2023-02-05T05:11:07.806Z,59.78
2023-02-05T05:13:35.359Z,68.93
2023-02-05T05:16:02.835Z,70.72
2023-02-05T05:18:29.374Z,61.67
2023-02-05T05:20:56.035Z,60.72
2023-02-05T05:23:22.546Z,71.05
2023-02-05T05:25:49.046Z,63.55
2023-02-05T05:28:16.585Z,62.40
2023-02-05T05:30:44.668Z,59.15
2023-02-05T05:33:11.518Z,67.63
2023-02-05T05:35:38.546Z,61.03
2023-02-05T05:38:05.490Z,70.25
2023-02-05T05:40:51.950Z,63.25
2023-02-05T05:43:39.314Z,79.28
2023-02-05T05:46:06.854Z,75.75
2023-02-05T05:48:33.428Z,73.03
2023-02-05T05:50:59.997Z,63.95
2023-02-05T05:53:26.446Z,63.70
2023-02-05T05:55:52.894Z,58.17
2023-02-05T05:58:19.295Z,76.50
2023-02-05T06:00:45.945Z,67.25
2023-02-05T06:03:13.264Z,63.55
2023-02-05T06:05:39.676Z,73.03
2023-02-05T06:08:06.174Z,64.80
2023-02-05T06:10:33.314Z,63.75
2023-02-05T06:13:00.124Z,67.15
2023-02-05T06:15:26.824Z,66.70
2023-02-05T06:17:53.418Z,66.85
2023-02-05T06:20:20.637Z,62.83
2023-02-05T06:22:47.004Z,63.83
2023-02-05T06:25:13.505Z,63.72
2023-02-05T06:27:39.872Z,67.97
2023-02-05T06:30:06.688Z,56.78
2023-02-05T06:32:33.279Z,61.90
2023-02-05T06:34:59.654Z,53.03
2023-02-05T06:37:45.446Z,58.65
2023-02-05T06:40:15.383Z,54.53
2023-02-05T06:42:41.761Z,52.33
2023-02-05T06:45:09.965Z,53.45
2023-02-05T06:47:37.779Z,46.80
2023-02-05T06:50:06.255Z,48.55
2023-02-05T06:52:32.785Z,45.33
2023-02-05T06:54:59.198Z,47.92
2023-02-05T06:57:25.817Z,40.05
2023-02-05T06:59:52.285Z,42.25
2023-02-05T07:02:18.744Z,36.70
2023-02-05T07:04:47.026Z,34.63
2023-02-05T07:07:13.628Z,39.72
2023-02-05T07:09:40.032Z,37.65
2023-02-05T07:12:06.845Z,37.13
2023-02-05T07:14:40.420Z,34.90
2023-02-05T07:17:07.513Z,36.13
2023-02-05T07:19:34.868Z,35.15
2023-02-05T07:22:01.285Z,35.63
2023-02-05T07:24:27.740Z,37.33
2023-02-05T07:26:54.178Z,32.63
2023-02-05T07:29:20.659Z,35.42
2023-02-05T07:31:49.429Z,32.45
2023-02-05T07:34:15.858Z,32.00
2023-02-05T07:36:42.219Z,34.28
2023-02-05T07:39:08.618Z,27.08
2023-02-05T07:41:35.082Z,27.55
2023-02-05T07:44:01.481Z,34.22
2023-02-05T07:46:29.386Z,29.73
2023-02-05T07:48:55.860Z,31.65
2023-02-05T07:51:24.709Z,25.33
2023-02-05T07:53:52.234Z,26.08
2023-02-05T07:56:22.604Z,28.65
2023-02-05T07:58:49.155Z,29.27
2023-02-05T08:01:16.034Z,24.70
2023-02-05T08:03:42.768Z,23.05
2023-02-05T08:06:11.423Z,18.50
2023-02-05T08:08:37.821Z,17.98
2023-02-05T08:11:06.330Z,15.98
2023-02-05T08:13:34.140Z,14.60
2023-02-05T08:16:04.983Z,10.93
2023-02-05T08:18:31.373Z,7.35
2023-02-05T08:20:57.743Z,7.20
2023-02-05T08:23:24.445Z,6.45
2023-02-05T08:25:55.229Z,5.13
2023-02-05T08:28:22.270Z,3.83
2023-02-05T08:30:49.114Z,8.48
2023-02-05T08:33:15.510Z,7.35
2023-02-05T08:35:42.004Z,5.93
2023-02-05T08:38:08.390Z,4.30
2023-02-05T08:40:35.908Z,5.95
2023-02-05T08:43:02.659Z,6.93
2023-02-05T08:45:29.656Z,5.00
2023-02-05T08:47:56.747Z,9.65
2023-02-05T08:50:23.324Z,5.00
2023-02-05T08:52:50.069Z,4.95
2023-02-05T08:55:20.353Z,7.20
2023-02-05T08:57:46.769Z,4.53
2023-02-05T09:00:15.048Z,5.68
2023-02-05T09:02:43.077Z,4.43
2023-02-05T09:05:10.047Z,4.50
2023-02-05T09:07:41.016Z,5.70
2023-02-05T09:10:09.800Z,9.52
2023-02-05T09:12:36.825Z,8.93
2023-02-05T09:15:04.118Z,8.68
2023-02-05T09:17:30.841Z,8.43
2023-02-05T09:19:57.940Z,6.93
2023-02-05T09:22:24.391Z,9.18
2023-02-05T09:24:50.771Z,8.23
2023-02-05T09:27:17.179Z,6.50
2023-02-05T09:29:43.601Z,9.43
2023-02-05T09:32:09.989Z,6.03
2023-02-05T09:34:36.394Z,13.00
2023-02-05T09:37:02.798Z,11.90
2023-02-05T09:40:17.181Z,9.02
2023-02-05T09:42:36.662Z,10.68
2023-02-05T09:45:13.607Z,7.97
2023-02-05T09:47:57.121Z,11.35
2023-02-05T09:50:29.755Z,9.32
2023-02-05T09:53:12.197Z,12.07
2023-02-05T09:55:44.747Z,8.88
2023-02-05T09:58:23.770Z,7.90
2023-02-05T10:00:58.429Z,11.93
2023-02-05T10:03:32.441Z,13.75
2023-02-05T10:06:13.688Z,11.18
2023-02-05T10:08:49.162Z,9.13
2023-02-05T10:11:38.218Z,9.85
2023-02-05T10:14:30.685Z,8.30
2023-02-05T10:17:15.320Z,7.72
2023-02-05T10:19:55.880Z,7.97
2023-02-05T10:22:31.882Z,8.18
2023-02-05T10:25:04.540Z,12.65
2023-02-05T10:27:43.638Z,10.15
2023-02-05T10:30:24.576Z,10.75
2023-02-05T10:32:59.900Z,9.75
2023-02-05T10:35:39.062Z,9.82
2023-02-05T10:38:16.814Z,11.95
2023-02-05T10:40:46.432Z,15.80
2023-02-05T10:43:36.007Z,12.88
2023-02-05T10:46:03.369Z,17.13
2023-02-05T10:49:01.199Z,11.50
2023-02-05T10:51:40.155Z,12.73
2023-02-05T10:54:18.991Z,9.40
2023-02-05T10:56:45.734Z,11.27
2023-02-05T10:59:26.400Z,12.65
2023-02-05T11:01:55.962Z,15.25
2023-02-05T11:04:33.640Z,9.13
2023-02-05T11:07:01.535Z,17.67
2023-02-05T11:09:30.897Z,10.80
2023-02-05T11:12:06.435Z,16.50
2023-02-05T11:14:36.869Z,14.98
2023-02-05T11:17:24.874Z,20.58
2023-02-05T11:20:05.958Z,12.55
2023-02-05T11:22:39.383Z,20.95
2023-02-05T11:27:57.527Z,15.00
2023-02-05T11:30:56.006Z,17.42
2023-02-05T11:33:21.872Z,17.25
2023-02-05T11:36:02.650Z,14.25
2023-02-05T11:38:33.918Z,18.00
2023-02-05T11:41:04.095Z,14.38
2023-02-05T11:43:34.238Z,14.63
2023-02-05T11:46:03.615Z,12.23
2023-02-05T11:48:44.624Z,9.32
2023-02-05T11:51:15.547Z,10.43
2023-02-05T11:53:54.737Z,9.88
2023-02-05T11:56:25.386Z,9.35
2023-02-05T11:59:04.028Z,9.48
2023-02-05T12:01:33.746Z,9.75
2023-02-05T12:04:06.383Z,10.38
2023-02-05T12:06:41.502Z,11.73
2023-02-05T12:09:12.642Z,8.77
2023-02-05T12:12:03.981Z,13.07
2023-02-05T12:14:39.784Z,9.65
2023-02-05T12:17:28.140Z,9.75
2023-02-05T12:20:22.681Z,7.47
2023-02-05T12:23:04.525Z,8.43
2023-02-05T12:25:54.237Z,12.95
2023-02-05T12:28:33.256Z,7.63
2023-02-05T12:31:08.589Z,9.50
2023-02-05T12:33:44.274Z,8.55
2023-02-05T12:36:22.967Z,7.68
2023-02-05T12:39:14.487Z,7.70
2023-02-05T12:42:18.537Z,7.10
2023-02-05T12:45:22.769Z,8.13
2023-02-05T12:50:40.530Z,10.60
2023-02-05T12:53:39.150Z,8.85
2023-02-05T12:56:39.870Z,12.38
2023-02-05T12:59:14.836Z,7.65
2023-02-05T13:01:48.780Z,8.10
2023-02-05T13:04:28.575Z,8.68
2023-02-05T13:07:05.642Z,10.32
2023-02-05T13:09:46.458Z,11.45
2023-02-05T13:12:17.648Z,8.50
2023-02-05T13:14:47.894Z,12.00
2023-02-05T13:17:29.296Z,12.00
2023-02-05T13:20:01.015Z,12.05
2023-02-05T13:22:54.811Z,11.82
2023-02-05T13:25:38.561Z,11.15
2023-02-05T13:28:39.929Z,10.38
2023-02-05T13:31:16.612Z,10.18
2023-02-05T13:33:43.985Z,10.23
2023-02-05T13:36:27.143Z,8.00
2023-02-05T13:39:13.786Z,7.57
2023-02-05T13:41:43.219Z,9.95
2023-02-05T13:44:28.442Z,8.60
2023-02-05T13:47:35.430Z,9.68
2023-02-05T13:50:16.878Z,9.75
2023-02-05T13:53:06.126Z,16.38
2023-02-05T13:56:03.572Z,7.43
2023-02-05T13:58:52.654Z,6.25
2023-02-05T14:01:25.280Z,11.23
2023-02-05T14:04:02.428Z,9.77
2023-02-05T14:06:35.804Z,7.97
2023-02-05T14:14:39.080Z,8.05
2023-02-05T14:17:43.792Z,7.53
2023-02-05T14:20:25.334Z,10.20
2023-02-05T14:22:57.717Z,10.88
2023-02-05T14:25:36.926Z,10.57
2023-02-05T14:28:28.023Z,5.60
2023-02-05T14:31:03.589Z,11.20
2023-02-05T14:33:39.345Z,10.32
2023-02-05T14:36:22.518Z,8.90
2023-02-05T14:38:59.206Z,12.88
2023-02-05T14:41:33.669Z,9.75
2023-02-05T14:44:04.097Z,14.60
2023-02-05T14:46:36.400Z,9.40
2023-02-05T14:49:06.426Z,12.40
2023-02-05T14:51:41.273Z,13.90
2023-02-05T14:54:17.945Z,14.77
2023-02-05T14:56:49.861Z,13.65
2023-02-05T14:59:29.183Z,14.05
2023-02-05T15:01:57.245Z,16.27
2023-02-05T15:04:57.876Z,12.75
2023-02-05T15:07:27.519Z,13.05
2023-02-05T15:10:02.344Z,12.52
2023-02-05T15:12:51.302Z,15.45
2023-02-05T15:15:31.413Z,14.50
2023-02-05T15:18:04.828Z,14.82
2023-02-05T15:23:04.810Z,17.58
2023-02-05T15:25:36.640Z,15.68
2023-02-05T15:28:23.672Z,18.38
2023-02-05T15:30:57.615Z,16.17
2023-02-05T15:33:39.287Z,15.07
2023-02-05T15:36:13.239Z,22.20
2023-02-05T15:38:48.105Z,16.95
2023-02-05T15:41:15.854Z,20.42
2023-02-05T15:43:58.775Z,17.10
2023-02-05T15:46:25.877Z,17.63
2023-02-05T15:48:52.908Z,20.58
2023-02-05T15:51:39.618Z,11.10
2023-02-05T15:54:07.043Z,16.27
2023-02-05T15:56:37.520Z,19.30
2023-02-05T15:59:11.501Z,22.48
2023-02-05T16:01:44.872Z,13.82
2023-02-05T16:09:20.822Z,13.18
2023-02-05T16:11:48.209Z,14.90
2023-02-05T16:14:17.317Z,21.67
2023-02-05T16:17:15.555Z,13.65
2023-02-05T16:19:50.008Z,17.77
2023-02-05T16:22:40.531Z,18.73
2023-02-05T16:25:29.069Z,22.55
2023-02-05T16:27:57.450Z,19.20
2023-02-05T16:30:43.563Z,18.55
2023-02-05T16:33:45.469Z,14.88
2023-02-05T16:36:29.331Z,17.92
2023-02-05T16:38:59.192Z,17.70
2023-02-05T16:41:26.647Z,20.33
2023-02-05T16:43:55.627Z,19.98
2023-02-05T16:46:25.273Z,16.15
2023-02-05T16:48:57.725Z,18.05
2023-02-05T16:51:31.512Z,10.45
2023-02-05T16:54:00.605Z,15.68
2023-02-05T16:56:34.373Z,15.77
2023-02-05T16:59:02.982Z,17.02
2023-02-05T17:01:38.782Z,14.48
2023-02-05T17:04:05.364Z,19.35
2023-02-05T17:06:37.612Z,11.57
2023-02-05T17:09:05.461Z,16.88
2023-02-05T17:11:38.019Z,17.00
2023-02-05T17:14:29.195Z,20.23
2023-02-05T17:17:00.473Z,18.92
2023-02-05T17:19:32.381Z,16.40
2023-02-05T17:22:14.131Z,17.65
2023-02-05T17:24:46.214Z,23.17
2023-02-05T17:27:18.677Z,16.17
2023-02-05T17:29:46.086Z,22.00
2023-02-05T17:32:18.516Z,19.60
2023-02-05T17:34:45.818Z,20.65
2023-02-05T17:37:12.729Z,17.17
2023-02-05T17:39:40.822Z,19.63
2023-02-05T17:42:18.207Z,17.10
2023-02-05T17:44:44.585Z,21.88
2023-02-05T17:47:11.030Z,23.35
2023-02-05T17:49:37.377Z,21.90
2023-02-05T17:52:03.881Z,19.35
2023-02-05T17:54:30.900Z,16.98
2023-02-05T17:57:13.180Z,22.33
2023-02-05T17:59:40.259Z,13.15
2023-02-05T18:02:07.625Z,18.23
2023-02-05T18:04:34.214Z,17.10
2023-02-05T18:07:00.702Z,19.13
2023-02-05T18:09:27.535Z,18.45
2023-02-05T18:11:53.970Z,23.05
2023-02-05T18:14:21.657Z,13.50
2023-02-05T18:16:48.060Z,19.30
2023-02-05T18:19:14.505Z,23.92
2023-02-05T18:21:40.938Z,22.85
2023-02-05T18:24:07.419Z,22.42
2023-02-05T18:26:33.875Z,16.95
2023-02-05T18:29:00.262Z,18.23
2023-02-05T18:31:26.696Z,18.90
2023-02-05T18:33:54.045Z,26.45
2023-02-05T18:36:21.005Z,18.85
2023-02-05T18:38:47.442Z,16.02
2023-02-05T18:41:16.139Z,15.60
2023-02-05T18:43:43.533Z,20.73
2023-02-05T18:46:18.309Z,22.58
2023-02-05T18:48:49.186Z,25.02
2023-02-05T18:51:18.694Z,18.65
2023-02-05T18:53:47.318Z,18.20
2023-02-05T18:56:13.969Z,28.30
2023-02-05T18:58:40.830Z,22.52
2023-02-05T19:01:14.996Z,22.23
2023-02-05T19:03:42.737Z,21.25
2023-02-05T19:06:11.108Z,23.63
2023-02-05T19:08:38.184Z,23.80
2023-02-05T19:11:20.681Z,22.75
2023-02-05T19:13:48.073Z,28.35
2023-02-05T19:16:16.603Z,25.52
2023-02-05T19:18:45.014Z,26.58
2023-02-05T19:21:15.062Z,22.77
2023-02-05T19:23:42.025Z,29.42
2023-02-05T19:26:14.006Z,27.95
2023-02-05T19:28:43.779Z,31.42
2023-02-05T19:31:13.958Z,25.02
2023-02-05T19:33:41.628Z,27.58
2023-02-05T19:36:10.175Z,18.92
2023-02-05T19:38:38.499Z,25.30
2023-02-05T19:41:09.052Z,26.23
2023-02-05T19:43:35.874Z,26.17
2023-02-05T19:46:07.234Z,28.35
2023-02-05T19:48:34.474Z,28.77
2023-02-05T19:51:09.935Z,23.38
2023-02-05T19:53:38.979Z,24.70
2023-02-05T19:56:11.772Z,24.25
2023-02-05T19:58:40.432Z,27.67
2023-02-05T20:01:23.634Z,18.55
2023-02-05T20:03:52.180Z,31.77
2023-02-05T20:06:22.703Z,27.45
2023-02-05T20:08:49.241Z,29.08
2023-02-05T20:11:16.509Z,25.98
2023-02-05T20:13:42.991Z,28.73
2023-02-05T20:16:13.213Z,28.20
2023-02-05T20:18:41.341Z,33.70
2023-02-05T20:21:12.416Z,33.13
2023-02-05T20:23:40.032Z,31.08
2023-02-05T20:26:07.742Z,30.15
2023-02-05T20:28:59.390Z,31.95
2023-02-05T20:31:35.009Z,25.98
2023-02-05T20:34:03.048Z,31.98
2023-02-05T20:36:31.589Z,42.83
2023-02-05T20:38:59.784Z,22.60
2023-02-05T20:41:26.229Z,29.70
2023-02-05T20:43:53.644Z,32.78
2023-02-05T20:46:20.674Z,27.08
2023-02-05T20:48:48.338Z,31.25
2023-02-05T20:51:18.913Z,24.98
2023-02-05T20:53:46.229Z,32.85
2023-02-05T20:56:14.794Z,28.20
2023-02-05T20:58:41.611Z,26.63
2023-02-05T21:01:09.713Z,33.95
2023-02-05T21:03:37.122Z,39.15
2023-02-05T21:06:04.344Z,36.80
2023-02-05T21:08:30.930Z,30.13
2023-02-05T21:10:57.580Z,35.50
2023-02-05T21:13:23.943Z,33.45
2023-02-05T21:15:58.973Z,30.35
2023-02-05T21:18:26.695Z,35.45
2023-02-05T21:20:54.122Z,32.80
2023-02-05T21:23:21.222Z,35.40
2023-02-05T21:25:48.072Z,28.92
2023-02-05T21:28:14.783Z,30.98
2023-02-05T21:30:42.948Z,29.70
2023-02-05T21:33:09.363Z,40.20
2023-02-05T21:35:39.037Z,32.35
2023-02-05T21:38:05.511Z,32.17
2023-02-05T21:40:33.962Z,40.20
2023-02-05T21:43:00.576Z,35.53
2023-02-05T21:45:26.991Z,35.10
2023-02-05T21:47:53.391Z,35.47
2023-02-05T21:50:19.770Z,41.97
2023-02-05T21:52:46.216Z,35.53
2023-02-05T21:55:12.602Z,35.10
2023-02-05T21:57:38.949Z,30.33
2023-02-05T22:00:05.645Z,38.22
2023-02-05T22:02:38.487Z,31.02
2023-02-05T22:05:05.136Z,41.67
2023-02-05T22:07:31.758Z,40.25
2023-02-05T22:09:58.166Z,36.42
2023-02-05T22:12:24.511Z,33.83
2023-02-05T22:14:50.979Z,35.95
2023-02-05T22:17:17.352Z,34.88
2023-02-05T22:19:43.739Z,37.03
2023-02-05T22:22:10.113Z,31.20
2023-02-05T22:24:36.495Z,27.27
2023-02-05T22:27:03.124Z,35.38
2023-02-05T22:29:29.824Z,32.65
2023-02-05T22:31:56.262Z,37.78
2023-02-05T22:34:22.919Z,40.63
2023-02-05T22:36:49.557Z,38.50
2023-02-05T22:39:15.963Z,41.63
2023-02-05T22:41:44.418Z,38.00
2023-02-05T22:44:11.699Z,42.28
2023-02-05T22:46:41.578Z,39.78
2023-02-05T22:49:08.488Z,34.40
2023-02-05T22:51:37.722Z,40.78
2023-02-05T22:54:05.138Z,38.08
2023-02-05T22:56:32.506Z,38.42
2023-02-05T22:59:01.348Z,35.55
2023-02-05T23:01:32.597Z,45.13
2023-02-05T23:04:00.716Z,35.72
2023-02-05T23:06:30.677Z,42.05
2023-02-05T23:08:59.698Z,28.08
2023-02-05T23:11:28.025Z,36.33
2023-02-05T23:13:55.553Z,34.58
2023-02-05T23:16:30.992Z,36.28
2023-02-05T23:19:03.931Z,37.90
2023-02-05T23:21:32.993Z,29.58
2023-02-05T23:23:59.543Z,32.33
2023-02-05T23:26:28.729Z,32.95
2023-02-05T23:28:55.874Z,32.17
2023-02-05T23:31:24.314Z,29.70
2023-02-05T23:33:51.980Z,36.58
2023-02-05T23:36:18.517Z,32.67
2023-02-05T23:38:45.237Z,40.08
2023-02-05T23:41:12.199Z,29.13
2023-02-05T23:43:39.090Z,34.75
2023-02-05T23:46:07.399Z,31.40
2023-02-05T23:48:34.174Z,36.13
2023-02-05T23:51:00.861Z,42.00
2023-02-05T23:53:27.564Z,46.35
2023-02-05T23:55:54.144Z,34.55
2023-02-05T23:58:25.607Z,29.70
